sensor_id;sensor_type;location;lat;lon;timestamp;pressure;altitude;pressure_sealevel;temperature;humidity
75157;BME280;63736;50.076;8.198;2023-05-03T00:00:22;100581.97;;;5.43;94.57
75157;BME280;63736;50.076;8.198;2023-05-03T00:02:48;100582.03;;;5.41;94.84
75157;BME280;63736;50.076;8.198;2023-05-03T00:05:15;100574.16;;;5.40;94.92
75157;BME280;63736;50.076;8.198;2023-05-03T00:07:42;100589.09;;;5.41;95.81
75157;BME280;63736;50.076;8.198;2023-05-03T00:10:09;100590.84;;;5.42;96.00
75157;BME280;63736;50.076;8.198;2023-05-03T00:12:36;100582.81;;;5.43;95.36
75157;BME280;63736;50.076;8.198;2023-05-03T00:15:02;100586.25;;;5.45;95.86
75157;BME280;63736;50.076;8.198;2023-05-03T00:17:27;100584.47;;;5.46;95.47
75157;BME280;63736;50.076;8.198;2023-05-03T00:19:53;100576.47;;;5.48;94.99
75157;BME280;63736;50.076;8.198;2023-05-03T00:22:20;100576.47;;;5.48;94.54
75157;BME280;63736;50.076;8.198;2023-05-03T00:24:46;100578.31;;;5.45;93.89
75157;BME280;63736;50.076;8.198;2023-05-03T00:27:13;100582.81;;;5.43;93.56
75157;BME280;63736;50.076;8.198;2023-05-03T00:29:38;100572.38;;;5.40;93.80
75157;BME280;63736;50.076;8.198;2023-05-03T00:32:04;100575.16;;;5.37;93.51
75157;BME280;63736;50.076;8.198;2023-05-03T00:34:29;100572.63;;;5.34;94.50
75157;BME280;63736;50.076;8.198;2023-05-03T00:36:54;100562.34;;;5.28;93.70
75157;BME280;63736;50.076;8.198;2023-05-03T00:39:20;100558.22;;;5.21;94.04
75157;BME280;63736;50.076;8.198;2023-05-03T00:41:45;100562.94;;;5.14;94.36
75157;BME280;63736;50.076;8.198;2023-05-03T00:44:10;100562.41;;;5.06;94.10
75157;BME280;63736;50.076;8.198;2023-05-03T00:46:35;100559.09;;;5.01;95.22
75157;BME280;63736;50.076;8.198;2023-05-03T00:49:01;100551.47;;;4.94;95.53
75157;BME280;63736;50.076;8.198;2023-05-03T00:51:26;100561.38;;;4.89;95.80
75157;BME280;63736;50.076;8.198;2023-05-03T00:53:52;100554.56;;;4.84;96.51
75157;BME280;63736;50.076;8.198;2023-05-03T00:56:18;100559.19;;;4.78;96.94
75157;BME280;63736;50.076;8.198;2023-05-03T00:58:50;100543.53;;;4.74;97.63
75157;BME280;63736;50.076;8.198;2023-05-03T01:01:15;100557.81;;;4.70;98.11
75157;BME280;63736;50.076;8.198;2023-05-03T01:03:41;100549.88;;;4.70;99.08
75157;BME280;63736;50.076;8.198;2023-05-03T01:06:31;100545.44;;;4.70;98.89
75157;BME280;63736;50.076;8.198;2023-05-03T01:09:11;100546.34;;;4.69;98.49
75157;BME280;63736;50.076;8.198;2023-05-03T01:14:35;100548.66;;;4.56;98.06
75157;BME280;63736;50.076;8.198;2023-05-03T01:17:11;100542.84;;;4.48;99.30
75157;BME280;63736;50.076;8.198;2023-05-03T01:19:42;100539.59;;;4.41;99.52
75157;BME280;63736;50.076;8.198;2023-05-03T01:24:46;100540.25;;;4.26;100.00
75157;BME280;63736;50.076;8.198;2023-05-03T01:27:12;100537.78;;;4.21;100.00
75157;BME280;63736;50.076;8.198;2023-05-03T01:29:37;100531.78;;;4.18;100.00
75157;BME280;63736;50.076;8.198;2023-05-03T01:32:06;100523.94;;;4.14;100.00
75157;BME280;63736;50.076;8.198;2023-05-03T01:34:57;100532.81;;;4.13;100.00
75157;BME280;63736;50.076;8.198;2023-05-03T01:37:26;100530.22;;;4.12;100.00
75157;BME280;63736;50.076;8.198;2023-05-03T01:39:56;100526.66;;;4.13;100.00
75157;BME280;63736;50.076;8.198;2023-05-03T01:42:23;100527.56;;;4.12;100.00
75157;BME280;63736;50.076;8.198;2023-05-03T01:44:49;100532.19;;;4.07;100.00
75157;BME280;63736;50.076;8.198;2023-05-03T01:47:15;100532.34;;;4.04;100.00
75157;BME280;63736;50.076;8.198;2023-05-03T01:49:40;100530.66;;;4.01;100.00
75157;BME280;63736;50.076;8.198;2023-05-03T01:52:06;100525.53;;;3.98;100.00
75157;BME280;63736;50.076;8.198;2023-05-03T01:54:31;100523.91;;;3.94;100.00
75157;BME280;63736;50.076;8.198;2023-05-03T01:56:56;100533.63;;;3.93;100.00
75157;BME280;63736;50.076;8.198;2023-05-03T01:59:22;100543.38;;;3.91;100.00
75157;BME280;63736;50.076;8.198;2023-05-03T02:01:47;100532.09;;;3.88;100.00
75157;BME280;63736;50.076;8.198;2023-05-03T02:04:12;100533.94;;;3.86;100.00
75157;BME280;63736;50.076;8.198;2023-05-03T02:06:37;100535.66;;;3.87;100.00
75157;BME280;63736;50.076;8.198;2023-05-03T02:09:03;100547.88;;;3.89;100.00
75157;BME280;63736;50.076;8.198;2023-05-03T02:11:28;100546.09;;;3.90;100.00
75157;BME280;63736;50.076;8.198;2023-05-03T02:13:53;100545.25;;;3.89;100.00
75157;BME280;63736;50.076;8.198;2023-05-03T02:16:18;100548.66;;;3.91;100.00
75157;BME280;63736;50.076;8.198;2023-05-03T02:18:44;100552.13;;;3.93;100.00
75157;BME280;63736;50.076;8.198;2023-05-03T02:21:09;100553.03;;;3.92;100.00
75157;BME280;63736;50.076;8.198;2023-05-03T02:23:35;100550.53;;;3.89;100.00
75157;BME280;63736;50.076;8.198;2023-05-03T02:26:00;100553.19;;;3.89;100.00
75157;BME280;63736;50.076;8.198;2023-05-03T02:28:26;100556.66;;;3.90;100.00
75157;BME280;63736;50.076;8.198;2023-05-03T02:30:51;100561.97;;;3.90;100.00
75157;BME280;63736;50.076;8.198;2023-05-03T02:33:16;100557.56;;;3.90;100.00
75157;BME280;63736;50.076;8.198;2023-05-03T02:35:41;100558.22;;;3.95;100.00
75157;BME280;63736;50.076;8.198;2023-05-03T02:38:07;100559.88;;;3.98;100.00
75157;BME280;63736;50.076;8.198;2023-05-03T02:40:32;100557.97;;;4.02;100.00
75157;BME280;63736;50.076;8.198;2023-05-03T02:42:57;100555.06;;;4.08;100.00
75157;BME280;63736;50.076;8.198;2023-05-03T02:45:22;100548.88;;;4.09;100.00
75157;BME280;63736;50.076;8.198;2023-05-03T02:47:48;100552.28;;;4.11;100.00
75157;BME280;63736;50.076;8.198;2023-05-03T02:50:13;100552.25;;;4.12;100.00
75157;BME280;63736;50.076;8.198;2023-05-03T02:52:38;100545.25;;;4.11;100.00
75157;BME280;63736;50.076;8.198;2023-05-03T02:55:04;100547.94;;;4.10;100.00
75157;BME280;63736;50.076;8.198;2023-05-03T02:57:30;100547.00;;;4.11;100.00
75157;BME280;63736;50.076;8.198;2023-05-03T02:59:55;100545.25;;;4.11;100.00
75157;BME280;63736;50.076;8.198;2023-05-03T03:02:21;100540.03;;;4.10;100.00
75157;BME280;63736;50.076;8.198;2023-05-03T03:04:46;100547.06;;;4.09;100.00
75157;BME280;63736;50.076;8.198;2023-05-03T03:07:12;100544.56;;;4.06;100.00
75157;BME280;63736;50.076;8.198;2023-05-03T03:09:37;100535.88;;;4.03;100.00
75157;BME280;63736;50.076;8.198;2023-05-03T03:12:02;100534.16;;;4.02;100.00
75157;BME280;63736;50.076;8.198;2023-05-03T03:14:28;100532.34;;;4.04;100.00
75157;BME280;63736;50.076;8.198;2023-05-03T03:16:54;100523.47;;;4.05;100.00
75157;BME280;63736;50.076;8.198;2023-05-03T03:19:20;100524.25;;;4.07;100.00
75157;BME280;63736;50.076;8.198;2023-05-03T03:21:45;100520.63;;;4.09;100.00
75157;BME280;63736;50.076;8.198;2023-05-03T03:24:10;100523.22;;;4.11;100.00
75157;BME280;63736;50.076;8.198;2023-05-03T03:26:36;100517.91;;;4.11;100.00
75157;BME280;63736;50.076;8.198;2023-05-03T03:29:01;100523.22;;;4.11;100.00
75157;BME280;63736;50.076;8.198;2023-05-03T03:31:26;100518.88;;;4.10;100.00
75157;BME280;63736;50.076;8.198;2023-05-03T03:33:52;100525.00;;;4.10;100.00
75157;BME280;63736;50.076;8.198;2023-05-03T03:36:17;100516.28;;;4.08;100.00
75157;BME280;63736;50.076;8.198;2023-05-03T03:38:42;100519.78;;;4.09;100.00
75157;BME280;63736;50.076;8.198;2023-05-03T03:41:07;100517.22;;;4.07;100.00
75157;BME280;63736;50.076;8.198;2023-05-03T03:43:33;100519.84;;;4.07;100.00
75157;BME280;63736;50.076;8.198;2023-05-03T03:45:58;100522.59;;;4.04;100.00
75157;BME280;63736;50.076;8.198;2023-05-03T03:48:23;100531.59;;;4.00;100.00
75157;BME280;63736;50.076;8.198;2023-05-03T03:50:49;100540.56;;;3.96;100.00
75157;BME280;63736;50.076;8.198;2023-05-03T03:53:14;100539.81;;;3.92;100.00
75157;BME280;63736;50.076;8.198;2023-05-03T03:55:40;100537.25;;;3.91;100.00
75157;BME280;63736;50.076;8.198;2023-05-03T03:58:05;100532.94;;;3.88;100.00
75157;BME280;63736;50.076;8.198;2023-05-03T04:00:30;100547.88;;;3.89;100.00
75157;BME280;63736;50.076;8.198;2023-05-03T04:02:56;100548.75;;;3.90;100.00
75157;BME280;63736;50.076;8.198;2023-05-03T04:05:21;100543.53;;;3.88;100.00
75157;BME280;63736;50.076;8.198;2023-05-03T04:07:46;100553.25;;;3.88;100.00
75157;BME280;63736;50.076;8.198;2023-05-03T04:10:11;100546.97;;;3.90;100.00
75157;BME280;63736;50.076;8.198;2023-05-03T04:12:37;100545.84;;;3.96;100.00
75157;BME280;63736;50.076;8.198;2023-05-03T04:15:03;100555.28;;;4.03;100.00
75157;BME280;63736;50.076;8.198;2023-05-03T04:17:28;100547.06;;;4.09;100.00
75157;BME280;63736;50.076;8.198;2023-05-03T04:19:53;100553.84;;;4.17;100.00
75157;BME280;63736;50.076;8.198;2023-05-03T04:22:19;100559.75;;;4.23;100.00
75157;BME280;63736;50.076;8.198;2023-05-03T04:24:44;100555.88;;;4.32;100.00
75157;BME280;63736;50.076;8.198;2023-05-03T04:27:10;100557.31;;;4.39;100.00
75157;BME280;63736;50.076;8.198;2023-05-03T04:29:35;100551.69;;;4.47;100.00
75157;BME280;63736;50.076;8.198;2023-05-03T04:32:02;100556.66;;;4.55;100.00
75157;BME280;63736;50.076;8.198;2023-05-03T04:34:28;100556.41;;;4.61;100.00
75157;BME280;63736;50.076;8.198;2023-05-03T04:36:54;100550.88;;;4.67;100.00
75157;BME280;63736;50.076;8.198;2023-05-03T04:39:19;100547.91;;;4.75;100.00
75157;BME280;63736;50.076;8.198;2023-05-03T04:41:46;100545.84;;;4.82;100.00
75157;BME280;63736;50.076;8.198;2023-05-03T04:44:11;100546.50;;;4.87;100.00
75157;BME280;63736;50.076;8.198;2023-05-03T04:46:38;100544.44;;;4.93;99.76
75157;BME280;63736;50.076;8.198;2023-05-03T04:49:04;100543.22;;;5.01;99.60
75157;BME280;63736;50.076;8.198;2023-05-03T04:51:29;100543.59;;;5.12;98.84
75157;BME280;63736;50.076;8.198;2023-05-03T04:53:57;100545.56;;;5.27;98.46
75157;BME280;63736;50.076;8.198;2023-05-03T04:56:22;100549.31;;;5.42;97.14
75157;BME280;63736;50.076;8.198;2023-05-03T04:58:51;100539.50;;;5.63;95.59
75157;BME280;63736;50.076;8.198;2023-05-03T05:01:17;100553.88;;;5.96;94.46
75157;BME280;63736;50.076;8.198;2023-05-03T05:03:42;100543.06;;;6.37;92.47
75157;BME280;63736;50.076;8.198;2023-05-03T05:06:07;100543.47;;;7.32;89.45
75157;BME280;63736;50.076;8.198;2023-05-03T05:08:35;100538.16;;;8.27;84.10
75157;BME280;63736;50.076;8.198;2023-05-03T05:11:01;100537.13;;;9.20;78.22
75157;BME280;63736;50.076;8.198;2023-05-03T05:13:28;100534.81;;;10.26;70.38
75157;BME280;63736;50.076;8.198;2023-05-03T05:15:54;100529.72;;;11.02;61.99
75157;BME280;63736;50.076;8.198;2023-05-03T05:18:19;100531.03;;;11.72;58.49
75157;BME280;63736;50.076;8.198;2023-05-03T05:20:45;100532.03;;;12.44;58.00
75157;BME280;63736;50.076;8.198;2023-05-03T05:23:10;100529.97;;;13.17;54.95
75157;BME280;63736;50.076;8.198;2023-05-03T05:25:36;100528.13;;;13.85;52.46
75157;BME280;63736;50.076;8.198;2023-05-03T05:28:01;100529.34;;;14.25;46.65
75157;BME280;63736;50.076;8.198;2023-05-03T05:30:26;100534.00;;;14.56;45.75
75157;BME280;63736;50.076;8.198;2023-05-03T05:32:52;100526.88;;;14.87;43.63
75157;BME280;63736;50.076;8.198;2023-05-03T05:35:17;100532.53;;;15.15;43.43
75157;BME280;63736;50.076;8.198;2023-05-03T05:37:43;100538.44;;;15.30;41.22
75157;BME280;63736;50.076;8.198;2023-05-03T05:40:09;100539.78;;;15.55;41.36
75157;BME280;63736;50.076;8.198;2023-05-03T05:42:35;100541.78;;;15.84;40.70
75157;BME280;63736;50.076;8.198;2023-05-03T05:45:00;100545.09;;;16.37;39.16
75157;BME280;63736;50.076;8.198;2023-05-03T05:47:25;100543.09;;;16.68;37.92
75157;BME280;63736;50.076;8.198;2023-05-03T05:49:51;100549.31;;;17.08;37.33
75157;BME280;63736;50.076;8.198;2023-05-03T05:52:16;100536.00;;;17.62;37.18
75157;BME280;63736;50.076;8.198;2023-05-03T05:54:41;100531.44;;;18.36;36.60
75157;BME280;63736;50.076;8.198;2023-05-03T05:57:07;100530.06;;;19.21;35.37
75157;BME280;63736;50.076;8.198;2023-05-03T05:59:32;100522.63;;;20.08;33.45
75157;BME280;63736;50.076;8.198;2023-05-03T06:01:58;100525.41;;;20.58;32.81
75157;BME280;63736;50.076;8.198;2023-05-03T06:04:24;100520.63;;;21.01;31.48
75157;BME280;63736;50.076;8.198;2023-05-03T06:06:49;100522.59;;;21.32;29.79
75157;BME280;63736;50.076;8.198;2023-05-03T06:09:15;100522.13;;;21.20;29.92
75157;BME280;63736;50.076;8.198;2023-05-03T06:11:40;100534.13;;;21.34;28.65
75157;BME280;63736;50.076;8.198;2023-05-03T06:14:07;100543.63;;;21.30;29.25
75157;BME280;63736;50.076;8.198;2023-05-03T06:16:36;100550.22;;;21.44;28.62
75157;BME280;63736;50.076;8.198;2023-05-03T06:19:02;100546.34;;;21.86;28.26
75157;BME280;63736;50.076;8.198;2023-05-03T06:21:29;100548.47;;;22.31;28.20
75157;BME280;63736;50.076;8.198;2023-05-03T06:23:55;100551.75;;;22.72;27.76
75157;BME280;63736;50.076;8.198;2023-05-03T06:26:20;100544.72;;;22.78;26.92
75157;BME280;63736;50.076;8.198;2023-05-03T06:28:45;100552.59;;;23.11;27.03
75157;BME280;63736;50.076;8.198;2023-05-03T06:31:11;100560.31;;;23.52;26.28
75157;BME280;63736;50.076;8.198;2023-05-03T06:33:36;100555.66;;;23.46;25.98
75157;BME280;63736;50.076;8.198;2023-05-03T06:36:02;100560.41;;;23.74;25.49
75157;BME280;63736;50.076;8.198;2023-05-03T06:38:27;100566.59;;;23.83;25.24
75157;BME280;63736;50.076;8.198;2023-05-03T06:40:53;100557.09;;;23.94;25.16
75157;BME280;63736;50.076;8.198;2023-05-03T06:43:18;100559.50;;;24.40;25.30
75157;BME280;63736;50.076;8.198;2023-05-03T06:45:45;100551.94;;;24.42;24.30
75157;BME280;63736;50.076;8.198;2023-05-03T06:48:10;100545.78;;;24.55;24.10
75157;BME280;63736;50.076;8.198;2023-05-03T06:50:35;100553.72;;;24.93;23.91
75157;BME280;63736;50.076;8.198;2023-05-03T06:53:01;100558.94;;;24.88;23.54
75157;BME280;63736;50.076;8.198;2023-05-03T06:55:26;100543.13;;;25.12;23.75
75157;BME280;63736;50.076;8.198;2023-05-03T06:57:52;100548.72;;;25.03;22.55
75157;BME280;63736;50.076;8.198;2023-05-03T07:00:18;100557.50;;;24.70;22.86
75157;BME280;63736;50.076;8.198;2023-05-03T07:02:44;100551.34;;;23.88;23.20
75157;BME280;63736;50.076;8.198;2023-05-03T07:05:09;100562.03;;;24.20;23.17
75157;BME280;63736;50.076;8.198;2023-05-03T07:07:35;100555.09;;;24.39;23.56
75157;BME280;63736;50.076;8.198;2023-05-03T07:10:00;100544.50;;;23.92;22.92
75157;BME280;63736;50.076;8.198;2023-05-03T07:12:26;100544.78;;;24.41;23.32
75157;BME280;63736;50.076;8.198;2023-05-03T07:14:55;100551.97;;;24.85;23.16
75157;BME280;63736;50.076;8.198;2023-05-03T07:17:21;100541.91;;;25.21;22.75
75157;BME280;63736;50.076;8.198;2023-05-03T07:19:48;100546.97;;;25.52;22.31
75157;BME280;63736;50.076;8.198;2023-05-03T07:22:13;100545.56;;;26.12;22.04
75157;BME280;63736;50.076;8.198;2023-05-03T07:24:39;100545.84;;;26.64;21.29
75157;BME280;63736;50.076;8.198;2023-05-03T07:27:04;100544.28;;;26.14;21.26
75157;BME280;63736;50.076;8.198;2023-05-03T07:29:29;100549.38;;;26.31;21.09
75157;BME280;63736;50.076;8.198;2023-05-03T07:31:54;100544.41;;;25.93;21.15
75157;BME280;63736;50.076;8.198;2023-05-03T07:34:20;100543.44;;;26.14;21.17
75157;BME280;63736;50.076;8.198;2023-05-03T07:36:45;100544.19;;;25.94;21.07
75157;BME280;63736;50.076;8.198;2023-05-03T07:39:10;100546.38;;;26.12;21.39
75157;BME280;63736;50.076;8.198;2023-05-03T07:41:36;100544.53;;;26.33;20.84
75157;BME280;63736;50.076;8.198;2023-05-03T07:44:01;100545.66;;;25.97;21.02
75157;BME280;63736;50.076;8.198;2023-05-03T07:46:27;100534.63;;;26.32;20.86
75157;BME280;63736;50.076;8.198;2023-05-03T07:48:52;100545.81;;;26.50;20.55
75157;BME280;63736;50.076;8.198;2023-05-03T07:51:17;100547.28;;;26.33;20.44
75157;BME280;63736;50.076;8.198;2023-05-03T07:53:43;100542.22;;;26.30;20.53
75157;BME280;63736;50.076;8.198;2023-05-03T07:56:08;100534.63;;;26.25;20.76
75157;BME280;63736;50.076;8.198;2023-05-03T07:58:34;100529.81;;;26.67;20.48
75157;BME280;63736;50.076;8.198;2023-05-03T08:00:59;100529.84;;;26.87;20.05
75157;BME280;63736;50.076;8.198;2023-05-03T08:03:24;100530.63;;;27.21;20.05
75157;BME280;63736;50.076;8.198;2023-05-03T08:05:50;100523.25;;;27.22;19.94
75157;BME280;63736;50.076;8.198;2023-05-03T08:08:15;100529.81;;;26.61;19.76
75157;BME280;63736;50.076;8.198;2023-05-03T08:10:40;100529.19;;;26.79;20.13
75157;BME280;63736;50.076;8.198;2023-05-03T08:13:06;100533.84;;;26.78;20.04
75157;BME280;63736;50.076;8.198;2023-05-03T08:15:31;100528.56;;;26.90;19.86
75157;BME280;63736;50.076;8.198;2023-05-03T08:17:57;100531.91;;;27.12;19.85
75157;BME280;63736;50.076;8.198;2023-05-03T08:20:22;100529.53;;;27.95;19.42
75157;BME280;63736;50.076;8.198;2023-05-03T08:22:48;100525.63;;;28.23;18.78
75157;BME280;63736;50.076;8.198;2023-05-03T08:25:13;100529.41;;;28.54;18.59
75157;BME280;63736;50.076;8.198;2023-05-03T08:27:40;100530.75;;;28.44;18.11
75157;BME280;63736;50.076;8.198;2023-05-03T08:30:06;100528.97;;;28.82;18.29
75157;BME280;63736;50.076;8.198;2023-05-03T08:32:32;100531.09;;;29.49;18.10
75157;BME280;63736;50.076;8.198;2023-05-03T08:34:58;100534.81;;;29.92;17.45
75157;BME280;63736;50.076;8.198;2023-05-03T08:37:23;100529.63;;;29.83;17.94
75157;BME280;63736;50.076;8.198;2023-05-03T08:39:49;100521.91;;;29.55;17.71
75157;BME280;63736;50.076;8.198;2023-05-03T08:42:14;100539.81;;;29.02;18.18
75157;BME280;63736;50.076;8.198;2023-05-03T08:44:44;100527.72;;;28.52;18.21
75157;BME280;63736;50.076;8.198;2023-05-03T08:47:13;100518.94;;;28.12;18.48
75157;BME280;63736;50.076;8.198;2023-05-03T08:49:40;100519.22;;;27.90;18.65
75157;BME280;63736;50.076;8.198;2023-05-03T08:52:08;100520.00;;;28.11;18.56
75157;BME280;63736;50.076;8.198;2023-05-03T08:54:34;100526.16;;;28.38;18.98
75157;BME280;63736;50.076;8.198;2023-05-03T08:56:59;100520.22;;;28.92;18.52
75157;BME280;63736;50.076;8.198;2023-05-03T08:59:24;100517.56;;;28.85;16.95
75157;BME280;63736;50.076;8.198;2023-05-03T09:01:51;100516.03;;;29.08;17.46
75157;BME280;63736;50.076;8.198;2023-05-03T09:04:16;100510.13;;;28.85;17.97
75157;BME280;63736;50.076;8.198;2023-05-03T09:06:42;100533.66;;;29.25;17.25
75157;BME280;63736;50.076;8.198;2023-05-03T09:09:07;100505.22;;;28.05;17.13
75157;BME280;63736;50.076;8.198;2023-05-03T09:11:35;100511.97;;;28.09;18.19
75157;BME280;63736;50.076;8.198;2023-05-03T09:14:14;100510.88;;;28.10;17.93
75157;BME280;63736;50.076;8.198;2023-05-03T09:16:41;100516.31;;;28.24;18.29
75157;BME280;63736;50.076;8.198;2023-05-03T09:19:09;100508.44;;;27.95;18.40
75157;BME280;63736;50.076;8.198;2023-05-03T09:21:37;100514.00;;;28.21;18.51
75157;BME280;63736;50.076;8.198;2023-05-03T09:24:23;100515.59;;;28.67;18.34
75157;BME280;63736;50.076;8.198;2023-05-03T09:26:50;100512.63;;;28.05;18.55
75157;BME280;63736;50.076;8.198;2023-05-03T09:29:32;100500.59;;;27.92;18.42
75157;BME280;63736;50.076;8.198;2023-05-03T09:32:02;100494.91;;;28.58;18.14
75157;BME280;63736;50.076;8.198;2023-05-03T09:34:30;100505.03;;;29.08;17.87
75157;BME280;63736;50.076;8.198;2023-05-03T09:36:56;100502.38;;;29.01;18.05
75157;BME280;63736;50.076;8.198;2023-05-03T09:39:21;100496.19;;;29.24;18.16
75157;BME280;63736;50.076;8.198;2023-05-03T09:41:46;100496.91;;;28.44;18.07
75157;BME280;63736;50.076;8.198;2023-05-03T09:44:12;100484.78;;;27.94;18.41
75157;BME280;63736;50.076;8.198;2023-05-03T09:46:37;100481.81;;;27.57;18.84
75157;BME280;63736;50.076;8.198;2023-05-03T09:49:03;100486.88;;;27.53;18.80
75157;BME280;63736;50.076;8.198;2023-05-03T09:51:30;100493.38;;;26.87;19.69
75157;BME280;63736;50.076;8.198;2023-05-03T09:53:57;100485.75;;;26.55;20.22
75157;BME280;63736;50.076;8.198;2023-05-03T09:56:23;100478.59;;;26.34;20.41
75157;BME280;63736;50.076;8.198;2023-05-03T09:58:51;100475.84;;;26.68;20.25
75157;BME280;63736;50.076;8.198;2023-05-03T10:01:17;100476.88;;;26.13;20.82
75157;BME280;63736;50.076;8.198;2023-05-03T10:03:44;100476.84;;;25.45;21.31
75157;BME280;63736;50.076;8.198;2023-05-03T10:06:21;100477.47;;;25.05;21.50
75157;BME280;63736;50.076;8.198;2023-05-03T10:08:51;100484.56;;;24.71;22.42
75157;BME280;63736;50.076;8.198;2023-05-03T10:11:18;100493.13;;;23.96;22.53
75157;BME280;63736;50.076;8.198;2023-05-03T10:13:44;100478.06;;;23.19;23.46
75157;BME280;63736;50.076;8.198;2023-05-03T10:16:12;100488.91;;;22.74;24.16
75157;BME280;63736;50.076;8.198;2023-05-03T10:18:46;100485.81;;;22.39;24.83
75157;BME280;63736;50.076;8.198;2023-05-03T10:21:15;100494.81;;;21.93;25.08
75157;BME280;63736;50.076;8.198;2023-05-03T10:24:12;100496.69;;;21.05;25.96
75157;BME280;63736;50.076;8.198;2023-05-03T10:26:43;100491.31;;;20.72;26.80
75157;BME280;63736;50.076;8.198;2023-05-03T10:29:49;100476.03;;;20.54;27.48
75157;BME280;63736;50.076;8.198;2023-05-03T10:32:29;100482.44;;;20.04;28.08
75157;BME280;63736;50.076;8.198;2023-05-03T10:34:56;100481.81;;;19.59;28.99
75157;BME280;63736;50.076;8.198;2023-05-03T10:37:25;100478.59;;;19.21;29.25
75157;BME280;63736;50.076;8.198;2023-05-03T10:39:51;100469.56;;;18.86;30.02
75157;BME280;63736;50.076;8.198;2023-05-03T10:42:20;100479.22;;;18.62;30.54
75157;BME280;63736;50.076;8.198;2023-05-03T10:47:17;100458.16;;;18.47;30.73
75157;BME280;63736;50.076;8.198;2023-05-03T10:49:43;100458.69;;;18.51;31.16
75157;BME280;63736;50.076;8.198;2023-05-03T10:55:08;100458.13;;;18.65;31.16
75157;BME280;63736;50.076;8.198;2023-05-03T10:57:36;100462.41;;;18.50;31.26
75157;BME280;63736;50.076;8.198;2023-05-03T11:00:06;100451.41;;;18.52;31.41
75157;BME280;63736;50.076;8.198;2023-05-03T11:02:40;100451.03;;;18.46;31.52
75157;BME280;63736;50.076;8.198;2023-05-03T11:05:09;100451.81;;;18.39;31.38
75157;BME280;63736;50.076;8.198;2023-05-03T11:07:36;100450.00;;;18.21;31.92
75157;BME280;63736;50.076;8.198;2023-05-03T11:10:15;100437.25;;;18.13;31.80
75157;BME280;63736;50.076;8.198;2023-05-03T11:12:40;100442.06;;;18.02;32.05
75157;BME280;63736;50.076;8.198;2023-05-03T11:15:06;100445.22;;;17.97;32.28
75157;BME280;63736;50.076;8.198;2023-05-03T11:17:31;100441.84;;;17.95;32.22
75157;BME280;63736;50.076;8.198;2023-05-03T11:19:57;100435.66;;;18.03;32.31
75157;BME280;63736;50.076;8.198;2023-05-03T11:22:23;100430.94;;;18.05;31.81
75157;BME280;63736;50.076;8.198;2023-05-03T11:24:48;100435.78;;;18.01;31.51
75157;BME280;63736;50.076;8.198;2023-05-03T11:27:22;100434.75;;;17.84;31.94
75157;BME280;63736;50.076;8.198;2023-05-03T11:29:47;100426.03;;;17.72;32.10
75157;BME280;63736;50.076;8.198;2023-05-03T11:32:13;100434.53;;;17.77;31.75
75157;BME280;63736;50.076;8.198;2023-05-03T11:34:40;100435.06;;;17.81;31.63
75157;BME280;63736;50.076;8.198;2023-05-03T11:37:07;100416.22;;;17.71;31.90
75157;BME280;63736;50.076;8.198;2023-05-03T11:39:32;100423.66;;;17.69;31.79
75157;BME280;63736;50.076;8.198;2023-05-03T11:42:02;100416.94;;;17.73;32.09
75157;BME280;63736;50.076;8.198;2023-05-03T11:44:28;100415.72;;;17.86;32.52
75157;BME280;63736;50.076;8.198;2023-05-03T11:46:53;100417.25;;;17.88;31.85
75157;BME280;63736;50.076;8.198;2023-05-03T11:49:19;100408.59;;;17.84;31.85
75157;BME280;63736;50.076;8.198;2023-05-03T11:51:45;100406.00;;;17.93;32.29
75157;BME280;63736;50.076;8.198;2023-05-03T11:54:10;100401.94;;;18.15;31.99
75157;BME280;63736;50.076;8.198;2023-05-03T11:56:36;100397.34;;;18.33;31.65
75157;BME280;63736;50.076;8.198;2023-05-03T11:59:01;100394.66;;;18.33;31.78
75157;BME280;63736;50.076;8.198;2023-05-03T12:01:28;100398.75;;;18.38;31.48
75157;BME280;63736;50.076;8.198;2023-05-03T12:03:56;100393.34;;;18.38;31.41
75157;BME280;63736;50.076;8.198;2023-05-03T12:06:22;100394.97;;;18.30;31.31
75157;BME280;63736;50.076;8.198;2023-05-03T12:08:47;100392.91;;;18.24;31.45
75157;BME280;63736;50.076;8.198;2023-05-03T12:11:13;100389.66;;;18.21;31.24
75157;BME280;63736;50.076;8.198;2023-05-03T12:13:40;100384.31;;;18.29;31.44
75157;BME280;63736;50.076;8.198;2023-05-03T12:16:07;100385.09;;;18.21;31.61
75157;BME280;63736;50.076;8.198;2023-05-03T12:21:10;100388.81;;;18.20;32.13
75157;BME280;63736;50.076;8.198;2023-05-03T12:23:36;100390.03;;;18.26;32.01
75157;BME280;63736;50.076;8.198;2023-05-03T12:26:02;100390.41;;;18.31;31.85
75157;BME280;63736;50.076;8.198;2023-05-03T12:28:27;100395.81;;;18.31;31.78
75157;BME280;63736;50.076;8.198;2023-05-03T12:30:53;100380.31;;;18.15;31.83
75157;BME280;63736;50.076;8.198;2023-05-03T12:33:18;100381.88;;;18.17;31.75
75157;BME280;63736;50.076;8.198;2023-05-03T12:35:45;100375.34;;;18.28;32.00
75157;BME280;63736;50.076;8.198;2023-05-03T12:38:10;100376.63;;;18.42;31.95
75157;BME280;63736;50.076;8.198;2023-05-03T12:40:36;100374.13;;;18.49;32.05
75157;BME280;63736;50.076;8.198;2023-05-03T12:43:03;100381.13;;;18.60;31.81
75157;BME280;63736;50.076;8.198;2023-05-03T12:45:28;100368.25;;;18.54;31.25
75157;BME280;63736;50.076;8.198;2023-05-03T12:47:56;100366.34;;;18.46;31.53
75157;BME280;63736;50.076;8.198;2023-05-03T12:50:21;100358.22;;;18.46;31.70
75157;BME280;63736;50.076;8.198;2023-05-03T12:52:47;100361.63;;;18.48;31.63
75157;BME280;63736;50.076;8.198;2023-05-03T12:55:12;100350.69;;;18.58;31.74
75157;BME280;63736;50.076;8.198;2023-05-03T12:57:37;100349.84;;;18.57;31.51
75157;BME280;63736;50.076;8.198;2023-05-03T13:00:04;100336.44;;;18.56;31.44